createdAt,value
2022-10-11T00:01:54.236Z,28.48
2022-10-11T00:04:21.609Z,26.13
2022-10-11T00:06:48.985Z,27.55
2022-10-11T00:09:16.499Z,30.08
2022-10-11T00:11:43.974Z,28.77
2022-10-11T00:14:11.560Z,28.55
2022-10-11T00:16:38.943Z,30.45
2022-10-11T00:19:08.242Z,27.40
2022-10-11T00:21:35.593Z,28.52
2022-10-11T00:24:02.998Z,27.33
2022-10-11T00:26:30.398Z,29.80
2022-10-11T00:28:58.304Z,28.70
2022-10-11T00:31:25.635Z,24.15
2022-10-11T00:33:53.978Z,27.30
2022-10-11T00:36:23.200Z,26.15
2022-10-11T00:38:50.547Z,34.35
2022-10-11T00:41:18.278Z,26.83
2022-10-11T00:43:45.799Z,28.73
2022-10-11T00:46:28.478Z,30.02
2022-10-11T00:49:01.720Z,31.15
2022-10-11T00:51:39.309Z,32.42
2022-10-11T00:54:07.837Z,29.08
2022-10-11T00:56:38.911Z,31.02
2022-10-11T00:59:12.509Z,32.78
2022-10-11T01:01:40.014Z,31.58
2022-10-11T01:04:07.457Z,33.92
2022-10-11T01:06:36.463Z,30.02
2022-10-11T01:09:04.086Z,25.48
2022-10-11T01:11:31.712Z,28.90
2022-10-11T01:14:13.930Z,27.98
2022-10-11T01:16:52.415Z,25.50
2022-10-11T01:19:48.316Z,28.80
2022-10-11T01:22:34.597Z,27.05
2022-10-11T01:25:18.889Z,25.30
2022-10-11T01:28:06.140Z,27.65
2022-10-11T01:30:36.983Z,28.42
2022-10-11T01:33:14.475Z,27.10
2022-10-11T01:35:47.108Z,22.02
2022-10-11T01:38:21.572Z,23.67
2022-10-11T01:40:52.831Z,24.63
2022-10-11T01:43:22.027Z,26.73
2022-10-11T01:45:52.885Z,25.48
2022-10-11T01:48:20.248Z,20.88
2022-10-11T01:50:49.499Z,21.55
2022-10-11T01:53:36.289Z,22.45
2022-10-11T01:56:15.985Z,24.00
2022-10-11T02:01:26.737Z,23.73
2022-10-11T02:04:04.115Z,25.45
2022-10-11T02:06:37.615Z,27.20
2022-10-11T02:09:14.303Z,20.88
2022-10-11T02:11:42.057Z,25.65
2022-10-11T02:14:12.961Z,25.52
2022-10-11T02:16:45.090Z,22.13
2022-10-11T02:19:17.126Z,23.30
2022-10-11T02:21:47.502Z,23.20
2022-10-11T02:24:19.735Z,26.65
2022-10-11T02:26:50.355Z,23.02
2022-10-11T02:29:18.480Z,23.10
2022-10-11T02:31:49.694Z,20.88
2022-10-11T02:34:20.862Z,24.20
2022-10-11T02:36:55.662Z,26.08
2022-10-11T02:39:29.460Z,24.23
2022-10-11T02:42:00.037Z,30.55
2022-10-11T02:44:31.850Z,20.98
2022-10-11T02:47:01.658Z,25.48
2022-10-11T02:49:31.681Z,19.90
2022-10-11T02:51:59.506Z,25.40
2022-10-11T02:54:27.509Z,24.00
2022-10-11T02:56:54.943Z,22.23
2022-10-11T02:59:22.273Z,24.70
2022-10-11T03:01:49.751Z,22.70
2022-10-11T03:04:18.626Z,21.25
2022-10-11T03:06:46.144Z,21.37
2022-10-11T03:09:13.631Z,23.73
2022-10-11T03:11:41.081Z,25.25
2022-10-11T03:14:08.518Z,21.25
2022-10-11T03:16:35.903Z,22.65
2022-10-11T03:19:03.915Z,19.75
2022-10-11T03:21:32.907Z,20.67
2022-10-11T03:24:00.468Z,21.58
2022-10-11T03:26:28.015Z,20.08
2022-10-11T03:28:55.745Z,20.83
2022-10-11T03:31:23.327Z,21.10
2022-10-11T03:33:50.798Z,22.58
2022-10-11T03:36:18.298Z,22.50
2022-10-11T03:38:47.319Z,24.02
2022-10-11T03:41:14.921Z,23.88
2022-10-11T03:43:42.412Z,22.10
2022-10-11T03:46:09.922Z,22.17
2022-10-11T03:48:37.588Z,20.73
2022-10-11T03:51:05.147Z,20.55
2022-10-11T03:53:32.667Z,22.30
2022-10-11T03:56:07.336Z,23.17
2022-10-11T03:58:35.895Z,24.55
2022-10-11T04:01:03.303Z,22.10
2022-10-11T04:03:30.710Z,20.98
2022-10-11T04:05:58.215Z,22.60
2022-10-11T04:08:25.716Z,22.10
2022-10-11T04:10:53.123Z,26.02
2022-10-11T04:13:22.027Z,25.23
2022-10-11T04:15:49.488Z,21.95
2022-10-11T04:18:17.020Z,25.90
2022-10-11T04:20:44.400Z,21.27
2022-10-11T04:23:12.340Z,20.38
2022-10-11T04:25:39.793Z,23.20
2022-10-11T04:28:07.788Z,21.58
2022-10-11T04:30:36.675Z,23.20
2022-10-11T04:33:04.217Z,25.10
2022-10-11T04:35:31.618Z,23.17
2022-10-11T04:37:58.998Z,23.33
2022-10-11T04:40:26.380Z,21.73
2022-10-11T04:42:53.766Z,23.67
2022-10-11T04:45:21.501Z,27.77
2022-10-11T04:47:50.578Z,21.65
2022-10-11T04:50:18.375Z,23.17
2022-10-11T04:52:45.854Z,25.67
2022-10-11T04:55:14.651Z,40.05
2022-10-11T04:57:42.469Z,37.83
2022-10-11T05:00:11.279Z,34.95
2022-10-11T05:02:38.737Z,35.97
2022-10-11T05:05:08.817Z,36.95
2022-10-11T05:07:36.346Z,38.78
2022-10-11T05:10:04.252Z,35.67
2022-10-11T05:12:32.385Z,34.90
2022-10-11T05:14:59.723Z,37.58
2022-10-11T05:17:27.091Z,38.35
2022-10-11T05:19:54.571Z,30.65
2022-10-11T05:22:23.541Z,32.50
2022-10-11T05:24:50.955Z,34.15
2022-10-11T05:27:18.434Z,29.92
2022-10-11T05:29:45.772Z,30.25
2022-10-11T05:32:13.218Z,34.08
2022-10-11T05:34:40.662Z,26.80
2022-10-11T05:37:08.024Z,26.35
2022-10-11T05:39:36.944Z,33.97
2022-10-11T05:42:08.966Z,28.98
2022-10-11T05:44:37.380Z,34.47
2022-10-11T05:47:04.939Z,32.70
2022-10-11T05:49:32.281Z,30.33
2022-10-11T05:51:59.686Z,32.05
2022-10-11T05:54:29.800Z,33.38
2022-10-11T05:56:58.600Z,26.98
2022-10-11T05:59:25.961Z,39.17
2022-10-11T06:01:53.457Z,29.48
2022-10-11T06:04:20.846Z,25.58
2022-10-11T06:06:48.268Z,31.58
2022-10-11T06:09:15.650Z,23.05
2022-10-11T06:11:43.527Z,19.00
2022-10-11T06:14:12.369Z,24.25
2022-10-11T06:16:40.251Z,27.53
2022-10-11T06:19:07.805Z,28.67
2022-10-11T06:21:35.191Z,26.15
2022-10-11T06:24:02.565Z,27.25
2022-10-11T06:26:30.528Z,21.67
2022-10-11T06:28:58.136Z,22.98
2022-10-11T06:31:27.491Z,23.92
2022-10-11T06:33:54.923Z,22.60
2022-10-11T06:36:22.370Z,26.58
2022-10-11T06:38:52.044Z,24.85
2022-10-11T06:46:17.183Z,37.38
2022-10-11T06:48:47.741Z,23.27
2022-10-11T06:51:17.687Z,31.88
2022-10-11T06:53:49.480Z,24.90
2022-10-11T06:56:17.423Z,33.13
2022-10-11T06:58:44.815Z,61.35
2022-10-11T07:01:14.449Z,35.05
2022-10-11T07:06:12.082Z,42.75
2022-10-11T07:08:40.116Z,31.08
2022-10-11T07:11:09.730Z,31.75
2022-10-11T07:13:38.424Z,32.63
2022-10-11T07:16:08.425Z,33.03
2022-10-11T07:18:36.584Z,104.10
2022-10-11T07:21:06.512Z,31.65
2022-10-11T07:23:35.510Z,91.75
2022-10-11T07:26:03.949Z,43.05
2022-10-11T07:28:31.688Z,41.73
2022-10-11T07:30:59.558Z,47.38
2022-10-11T07:33:27.127Z,51.88
2022-10-11T07:35:57.833Z,51.20
2022-10-11T07:38:25.243Z,51.95
2022-10-11T07:40:54.257Z,55.40
2022-10-11T07:43:21.678Z,70.80
2022-10-11T07:45:51.674Z,59.05
2022-10-11T07:48:19.082Z,87.78
2022-10-11T07:50:46.528Z,82.00
2022-10-11T07:53:13.938Z,83.00
2022-10-11T07:55:41.323Z,77.07
2022-10-11T07:58:11.853Z,65.28
2022-10-11T08:00:40.651Z,101.55
2022-10-11T08:03:08.478Z,72.20
2022-10-11T08:05:38.216Z,60.95
2022-10-11T08:08:05.674Z,64.00
2022-10-11T08:10:37.441Z,70.57
2022-10-11T08:13:04.969Z,61.42
2022-10-11T08:15:33.818Z,60.65
2022-10-11T08:18:01.171Z,64.87
2022-10-11T08:20:28.619Z,63.05
2022-10-11T08:22:56.036Z,54.92
2022-10-11T08:25:23.438Z,46.15
2022-10-11T08:27:50.831Z,49.53
2022-10-11T08:30:18.287Z,46.72
2022-10-11T08:32:47.107Z,45.35
2022-10-11T08:35:15.153Z,49.73
2022-10-11T08:37:42.532Z,42.67
2022-10-11T08:40:15.962Z,40.38
2022-10-11T08:42:49.023Z,41.95
2022-10-11T08:45:27.227Z,43.33
2022-10-11T08:48:04.664Z,36.53
2022-10-11T08:50:32.616Z,38.65
2022-10-11T08:53:05.757Z,35.58
2022-10-11T08:55:39.915Z,45.50
2022-10-11T08:58:11.123Z,32.92
2022-10-11T09:00:38.796Z,34.58
2022-10-11T09:03:21.311Z,30.92
2022-10-11T09:05:59.194Z,29.50
2022-10-11T09:08:33.603Z,29.33
2022-10-11T09:11:10.298Z,26.88
2022-10-11T09:14:00.183Z,32.03
2022-10-11T09:16:37.297Z,29.52
2022-10-11T09:19:26.229Z,25.25
2022-10-11T09:22:04.858Z,32.75
2022-10-11T09:24:46.780Z,27.88
2022-10-11T09:27:19.561Z,32.17
2022-10-11T09:29:56.647Z,119.80
2022-10-11T09:32:28.785Z,40.05
2022-10-11T09:35:00.996Z,42.30
2022-10-11T09:37:34.881Z,53.58
2022-10-11T09:40:13.887Z,49.50
2022-10-11T09:42:41.264Z,59.63
2022-10-11T09:45:14.890Z,70.07
2022-10-11T09:47:42.417Z,68.43
2022-10-11T09:50:18.847Z,74.38
2022-10-11T09:52:49.918Z,69.60
2022-10-11T09:55:36.599Z,66.80
2022-10-11T09:58:04.654Z,66.45
2022-10-11T10:00:33.540Z,59.08
2022-10-11T10:03:03.366Z,60.53
2022-10-11T10:05:33.261Z,57.38
2022-10-11T10:08:20.269Z,62.15
2022-10-11T10:10:49.648Z,52.40
2022-10-11T10:13:21.833Z,47.40
2022-10-11T10:15:51.594Z,46.33
2022-10-11T10:18:23.350Z,47.20
2022-10-11T10:20:57.157Z,40.90
2022-10-11T10:23:27.317Z,47.50
2022-10-11T10:26:10.765Z,42.67
2022-10-11T10:28:38.700Z,49.20
2022-10-11T10:31:21.783Z,56.05
2022-10-11T10:33:52.549Z,54.83
2022-10-11T10:36:28.096Z,47.25
2022-10-11T10:39:02.513Z,63.50
2022-10-11T10:41:30.032Z,64.05
2022-10-11T10:43:59.612Z,61.15
2022-10-11T10:46:41.303Z,67.28
2022-10-11T10:49:52.599Z,66.28
2022-10-11T10:52:30.727Z,56.42
2022-10-11T10:55:06.931Z,64.07
2022-10-11T10:57:41.619Z,61.90
2022-10-11T11:00:14.953Z,53.47
2022-10-11T11:02:51.098Z,60.83
2022-10-11T11:05:27.131Z,64.85
2022-10-11T11:08:05.851Z,61.13
2022-10-11T11:10:39.193Z,60.27
2022-10-11T11:13:19.932Z,47.53
2022-10-11T11:15:56.467Z,55.65
2022-10-11T11:18:34.523Z,54.75
2022-10-11T11:21:15.810Z,52.28
2022-10-11T11:23:55.288Z,52.33
2022-10-11T11:26:31.716Z,52.50
2022-10-11T11:29:22.601Z,42.88
2022-10-11T11:32:05.459Z,45.20
2022-10-11T11:34:37.156Z,47.33
2022-10-11T11:37:10.243Z,44.75
2022-10-11T11:39:46.290Z,42.28
2022-10-11T11:42:19.385Z,44.30
2022-10-11T11:44:49.380Z,36.58
2022-10-11T11:47:23.920Z,41.10
2022-10-11T11:49:58.913Z,38.55
2022-10-11T11:52:29.880Z,39.78
2022-10-11T11:55:05.205Z,41.00
2022-10-11T11:57:47.669Z,36.97
2022-10-11T12:00:19.790Z,37.65
2022-10-11T12:02:53.214Z,31.77
2022-10-11T12:05:23.523Z,31.23
2022-10-11T12:07:55.825Z,34.30
2022-10-11T12:10:35.935Z,36.58
2022-10-11T12:13:17.450Z,36.08
2022-10-11T12:16:08.235Z,31.55
2022-10-11T12:18:47.572Z,31.83
2022-10-11T12:21:20.981Z,35.50
2022-10-11T12:23:49.740Z,32.00
2022-10-11T12:26:40.486Z,30.20
2022-10-11T12:29:52.237Z,32.67
2022-10-11T12:32:49.984Z,32.65
2022-10-11T12:36:05.575Z,29.17
2022-10-11T12:38:39.136Z,29.65
2022-10-11T12:41:37.676Z,29.15
2022-10-11T12:44:21.489Z,26.33
2022-10-11T12:47:18.589Z,24.20
2022-10-11T12:50:02.370Z,28.17
2022-10-11T12:52:38.823Z,29.08
2022-10-11T12:55:36.379Z,26.10
2022-10-11T12:58:24.567Z,31.92
2022-10-11T13:01:13.054Z,34.78
2022-10-11T13:03:42.767Z,28.73
2022-10-11T13:08:43.564Z,28.25
2022-10-11T13:11:19.392Z,30.30
2022-10-11T13:13:52.444Z,29.98
2022-10-11T13:16:24.065Z,31.30
2022-10-11T13:18:56.732Z,32.90
2022-10-11T13:21:32.031Z,25.85
2022-10-11T13:24:01.656Z,28.27
2022-10-11T13:26:31.379Z,26.00
2022-10-11T13:31:28.238Z,26.98
2022-10-11T13:33:57.823Z,29.50
2022-10-11T13:38:57.393Z,30.63
2022-10-11T13:41:27.074Z,26.33
2022-10-11T13:46:24.432Z,26.30
2022-10-11T13:49:01.564Z,24.95
2022-10-11T13:51:32.945Z,20.70
2022-10-11T13:54:03.989Z,25.85
2022-10-11T13:56:35.708Z,20.38
2022-10-11T13:59:03.358Z,23.15
2022-10-11T14:01:38.499Z,21.98
2022-10-11T14:04:09.644Z,22.35
2022-10-11T14:06:44.427Z,24.15
2022-10-11T14:09:22.191Z,26.13
2022-10-11T14:11:50.272Z,24.30
2022-10-11T14:14:40.262Z,21.60
2022-10-11T14:17:14.382Z,19.45
2022-10-11T14:19:43.969Z,22.30
2022-10-11T14:22:17.490Z,20.02
2022-10-11T14:24:47.831Z,21.25
2022-10-11T14:27:18.937Z,19.17
2022-10-11T14:30:00.427Z,20.30
2022-10-11T14:32:35.518Z,22.00
2022-10-11T14:35:05.089Z,19.27
2022-10-11T14:37:32.512Z,24.75
2022-10-11T14:40:00.445Z,21.35
2022-10-11T14:42:28.069Z,21.95
2022-10-11T14:44:55.411Z,18.80
2022-10-11T14:47:22.834Z,21.90
2022-10-11T14:49:50.417Z,19.77
2022-10-11T14:52:19.292Z,22.83
2022-10-11T14:54:46.675Z,21.17
2022-10-11T14:57:14.147Z,17.15
2022-10-11T14:59:42.330Z,16.27
2022-10-11T15:02:12.358Z,21.77
2022-10-11T15:04:39.890Z,13.93
2022-10-11T15:07:07.320Z,16.90
2022-10-11T15:09:36.219Z,15.98
2022-10-11T15:12:04.580Z,15.93
2022-10-11T15:14:32.010Z,16.13
2022-10-11T15:16:59.462Z,15.02
2022-10-11T15:19:27.232Z,13.95
2022-10-11T15:21:57.631Z,17.73
2022-10-11T15:24:25.114Z,17.33
2022-10-11T15:26:53.971Z,14.25
2022-10-11T15:29:21.387Z,18.93
2022-10-11T15:31:48.770Z,12.45
2022-10-11T15:34:16.387Z,14.55
2022-10-11T15:36:44.408Z,14.88
2022-10-11T15:39:23.364Z,14.63
2022-10-11T15:41:50.978Z,15.32
2022-10-11T15:44:20.825Z,12.73
2022-10-11T15:46:48.232Z,15.48
2022-10-11T15:49:16.330Z,13.70
2022-10-11T15:51:43.855Z,13.80
2022-10-11T15:54:11.248Z,11.68
2022-10-11T15:56:38.970Z,12.70
2022-10-11T15:59:06.515Z,12.00
2022-10-11T16:01:35.469Z,11.88
2022-10-11T16:04:02.936Z,16.30
2022-10-11T16:06:30.391Z,15.43
2022-10-11T16:08:57.797Z,13.82
2022-10-11T16:11:25.272Z,15.52
2022-10-11T16:13:52.730Z,14.88
2022-10-11T16:16:20.100Z,13.98
2022-10-11T16:18:49.836Z,12.35
2022-10-11T16:23:44.507Z,12.98
2022-10-11T16:26:14.125Z,13.38
2022-10-11T16:31:09.161Z,13.32
2022-10-11T16:33:36.811Z,13.02
2022-10-11T16:36:08.695Z,13.30
2022-10-11T16:38:36.303Z,13.88
2022-10-11T16:41:06.277Z,13.98
2022-10-11T16:43:33.705Z,14.30
2022-10-11T16:46:01.120Z,13.63
2022-10-11T16:48:28.619Z,14.23
2022-10-11T16:51:05.558Z,14.50
2022-10-11T16:53:35.570Z,14.55
2022-10-11T16:56:05.870Z,14.07
2022-10-11T16:58:33.847Z,13.82
2022-10-11T17:01:01.297Z,17.25
2022-10-11T17:03:29.187Z,12.55
2022-10-11T17:05:56.576Z,14.93
2022-10-11T17:08:24.513Z,11.63
2022-10-11T17:10:57.726Z,18.48
2022-10-11T17:13:25.561Z,13.85
2022-10-11T17:15:53.128Z,13.45
2022-10-11T17:18:20.533Z,13.98
2022-10-11T17:20:48.147Z,16.20
2022-10-11T17:23:16.396Z,15.38
2022-10-11T17:25:44.960Z,14.15
2022-10-11T17:28:13.823Z,13.38
2022-10-11T17:30:41.259Z,12.80
2022-10-11T17:33:09.026Z,14.30
2022-10-11T17:35:36.599Z,14.02
2022-10-11T17:38:06.308Z,14.88
2022-10-11T17:40:34.455Z,16.17
2022-10-11T17:43:01.892Z,16.55
2022-10-11T17:45:31.232Z,13.45
2022-10-11T17:47:58.601Z,14.32
2022-10-11T17:50:26.145Z,17.00
2022-10-11T17:52:53.588Z,15.32
2022-10-11T17:55:21.247Z,17.58
2022-10-11T17:57:48.889Z,14.52
2022-10-11T18:00:17.472Z,19.00
2022-10-11T18:02:47.641Z,14.57
2022-10-11T18:05:15.033Z,17.10
2022-10-11T18:07:43.020Z,15.60
2022-10-11T18:10:10.534Z,19.15
2022-10-11T18:12:37.915Z,19.27
2022-10-11T18:15:06.105Z,18.15
2022-10-11T18:17:33.585Z,22.88
2022-10-11T18:20:03.211Z,20.48
2022-10-11T18:22:30.820Z,20.65
2022-10-11T18:24:58.370Z,20.73
2022-10-11T18:27:25.885Z,18.17
2022-10-11T18:29:53.449Z,22.08
2022-10-11T18:32:20.834Z,18.88
2022-10-11T18:34:48.251Z,21.80
2022-10-11T18:37:17.268Z,24.00
2022-10-11T18:39:44.622Z,18.25
2022-10-11T18:42:12.005Z,19.08
2022-10-11T18:44:39.460Z,22.40
2022-10-11T18:47:06.839Z,21.52
2022-10-11T18:49:34.384Z,18.27
2022-10-11T18:52:01.721Z,19.23
2022-10-11T18:54:30.626Z,18.60
2022-10-11T18:56:58.896Z,16.50
2022-10-11T18:59:26.453Z,18.45
2022-10-11T19:01:53.872Z,16.83
2022-10-11T19:04:21.522Z,19.08
2022-10-11T19:06:49.925Z,20.25
2022-10-11T19:09:19.633Z,19.58
2022-10-11T19:14:17.570Z,20.30
2022-10-11T19:16:47.207Z,20.63
2022-10-11T19:21:42.076Z,17.08
2022-10-11T19:24:09.609Z,22.70
2022-10-11T19:26:39.505Z,18.17
2022-10-11T19:29:10.524Z,20.50
2022-10-11T19:31:42.756Z,18.95
2022-10-11T19:34:10.271Z,21.23
2022-10-11T19:36:38.516Z,17.52
2022-10-11T19:39:06.603Z,19.60
2022-10-11T19:41:34.722Z,19.48
2022-10-11T19:44:02.102Z,17.90
2022-10-11T19:49:18.423Z,20.80
2022-10-11T19:51:45.823Z,18.50
2022-10-11T19:54:15.701Z,21.65
2022-10-11T19:56:44.130Z,18.90
2022-10-11T19:59:12.216Z,21.55
2022-10-11T20:01:41.595Z,19.90
2022-10-11T20:04:22.643Z,14.80
2022-10-11T20:06:56.016Z,16.65
2022-10-11T20:09:29.583Z,15.73
2022-10-11T20:11:58.975Z,20.00
2022-10-11T20:14:26.509Z,15.93
2022-10-11T20:16:55.358Z,15.07
2022-10-11T20:19:26.439Z,17.63
2022-10-11T20:21:56.814Z,15.95
2022-10-11T20:24:24.375Z,14.30
2022-10-11T20:26:51.739Z,19.70
2022-10-11T20:29:19.148Z,16.52
2022-10-11T20:31:46.642Z,18.65
2022-10-11T20:34:15.521Z,16.33
2022-10-11T20:36:46.875Z,15.00
2022-10-11T20:39:16.806Z,18.60
2022-10-11T20:41:44.320Z,17.50
2022-10-11T20:44:11.697Z,14.88
2022-10-11T20:46:39.557Z,16.15
2022-10-11T20:49:08.520Z,15.15
2022-10-11T20:51:39.584Z,15.90
2022-10-11T20:54:07.763Z,15.68
2022-10-11T20:56:35.687Z,18.63
2022-10-11T20:59:03.371Z,20.52
2022-10-11T21:01:33.230Z,20.85
2022-10-11T21:04:01.631Z,20.05
2022-10-11T21:06:30.744Z,17.92
2022-10-11T21:09:00.611Z,19.90
2022-10-11T21:11:29.078Z,22.73
2022-10-11T21:13:56.952Z,22.63
2022-10-11T21:16:24.408Z,23.33
2022-10-11T21:18:52.594Z,24.70
2022-10-11T21:21:20.907Z,24.45
2022-10-11T21:23:48.267Z,26.23
2022-10-11T21:26:17.395Z,24.08
2022-10-11T21:28:45.905Z,23.42
2022-10-11T21:31:15.488Z,25.75
2022-10-11T21:33:43.753Z,20.13
2022-10-11T21:36:13.540Z,24.25
2022-10-11T21:38:41.614Z,21.17
2022-10-11T21:41:11.683Z,22.42
2022-10-11T21:43:40.540Z,22.17
2022-10-11T21:46:11.996Z,22.70
2022-10-11T21:48:40.561Z,25.17
2022-10-11T21:51:12.055Z,22.85
2022-10-11T21:53:39.440Z,26.02
2022-10-11T21:56:06.971Z,26.55
2022-10-11T21:58:34.383Z,23.83
2022-10-11T22:01:03.637Z,24.10
2022-10-11T22:03:31.081Z,25.77
2022-10-11T22:06:01.186Z,23.73
2022-10-11T22:08:28.664Z,25.35
2022-10-11T22:10:58.244Z,25.90
2022-10-11T22:13:26.798Z,22.95
2022-10-11T22:15:54.281Z,25.30
2022-10-11T22:18:23.257Z,23.58
2022-10-11T22:20:50.905Z,23.35
2022-10-11T22:23:18.386Z,25.00
2022-10-11T22:25:46.163Z,26.75
2022-10-11T22:28:13.635Z,23.80
2022-10-11T22:30:41.197Z,21.17
2022-10-11T22:33:08.634Z,23.52
2022-10-11T22:35:37.991Z,25.05
2022-10-11T22:38:06.127Z,23.17
2022-10-11T22:40:33.611Z,22.00
2022-10-11T22:43:00.986Z,21.92
2022-10-11T22:45:28.474Z,21.05
2022-10-11T22:47:55.895Z,21.35
2022-10-11T22:50:23.305Z,22.88
2022-10-11T22:52:52.147Z,21.23
2022-10-11T22:55:20.238Z,24.93
2022-10-11T22:57:47.775Z,25.00
2022-10-11T23:00:15.697Z,24.00
2022-10-11T23:02:43.125Z,23.58
2022-10-11T23:05:10.626Z,24.02
2022-10-11T23:07:38.834Z,24.27
2022-10-11T23:10:09.095Z,21.67
2022-10-11T23:12:36.766Z,22.88
2022-10-11T23:15:04.827Z,22.48
2022-10-11T23:17:32.865Z,24.92
2022-10-11T23:20:00.247Z,23.27
2022-10-11T23:22:27.819Z,21.00
2022-10-11T23:24:55.225Z,22.42
2022-10-11T23:27:24.102Z,23.13
2022-10-11T23:29:51.497Z,24.50
2022-10-11T23:32:18.867Z,23.45
2022-10-11T23:34:46.259Z,23.98
2022-10-11T23:37:14.060Z,22.35
2022-10-11T23:39:41.573Z,23.77
2022-10-11T23:42:08.962Z,25.33
2022-10-11T23:44:37.862Z,23.42
2022-10-11T23:47:05.249Z,25.93
2022-10-11T23:49:32.625Z,24.63
2022-10-11T23:52:00.047Z,25.27
2022-10-11T23:54:27.428Z,25.00
2022-10-11T23:56:54.953Z,26.10
2022-10-11T23:59:22.340Z,22.80
